Current Weather

Sydney Intl

Sydney Intl, Australia (YSSY)

Report from: Friday, August 19, 2022 2:00 PM AEST
Current time: Friday, August 19, 2022 2:27 PM AEST

Nearby weather
Weather history
Weather forecast

Temperature19.0°C (66.2°F)
Dew point8.0°C (46.4°F)
Winds 11 kts (5.7 m/s, 12.7 mph) West-Southwest (250°)
Visibility6.2 mi. (10 km)
Clouds Few clouds 4,000 ft. (1,219 m)
Scattered clouds 7,000 ft. (2,134 m)
Ceiling: Broken clouds 13,000 ft. (3,962 m)
Altimeter29.83 in.Hg (1010 mB)
Relative humidity49 %
Density altitude734 ft. (224 m)
Flight conditions Visual Meteorological Conditions
Raw dataYSSY 190400Z 25011KT 9999 FEW040 SCT070 BKN130 19/08 Q1010
An unhandled exception has occurred. See browser dev tools for details. Reload 🗙